Staley, North Carolina
Current Conditions -  °F | °C
As of 7:15 AM on Friday 28 Nov 2014 (Local Time) from K5W8 Reporting Station
Clear Clear  
Wind Chill: 23°   Ceiling: Unl
Heat Index: 23°   Visibility: 10mi
Dew Point: 22°   Wind: 0mph
Humidity: 94%   Direction: NA
Pressure: 30.34"   Gusts: NA
Location:  35.8°N, 79.55°W
Report Text: K5W8 281215Z AUTO 00000KT 10SM CLR M05/M06 A3034 RMK AO2 T10481057
Loading
Personal Weather Stations






























Interactive Weather Map New forecast layout! Learn more

10-Day Weather Forecast

Advertisements
Track Severe Weather on mobile